createdAt,value
2022-07-30T00:03:53.385Z,7.10
2022-07-30T00:09:54.909Z,7.50
2022-07-30T00:15:56.564Z,6.93
2022-07-30T00:21:58.221Z,7.40
2022-07-30T00:27:59.714Z,8.23
2022-07-30T00:34:01.273Z,7.43
2022-07-30T00:40:03.257Z,9.30
2022-07-30T00:46:05.787Z,8.90
2022-07-30T00:52:07.376Z,9.80
2022-07-30T00:58:08.835Z,9.82
2022-07-30T01:04:13.763Z,9.83
2022-07-30T01:10:15.687Z,9.82
2022-07-30T01:16:17.437Z,10.07
2022-07-30T01:22:25.276Z,9.88
2022-07-30T01:28:40.569Z,9.70
2022-07-30T01:34:42.501Z,10.73
2022-07-30T01:40:44.812Z,10.68
2022-07-30T01:46:47.361Z,10.50
2022-07-30T01:52:51.153Z,10.45
2022-07-30T01:58:53.926Z,9.38
2022-07-30T02:04:58.334Z,9.93
2022-07-30T02:11:07.486Z,10.50
2022-07-30T02:17:19.112Z,10.37
2022-07-30T02:23:21.597Z,11.52
2022-07-30T02:29:23.969Z,12.95
2022-07-30T02:35:26.602Z,12.67
2022-07-30T02:41:29.620Z,13.98
2022-07-30T02:47:31.648Z,14.00
2022-07-30T02:53:38.326Z,15.90
2022-07-30T02:59:41.076Z,17.15
2022-07-30T03:05:42.901Z,16.97
2022-07-30T03:11:44.844Z,16.77
2022-07-30T03:17:50.116Z,15.73
2022-07-30T03:23:53.320Z,17.08
2022-07-30T03:29:56.423Z,15.95
2022-07-30T03:35:58.524Z,15.80
2022-07-30T03:42:00.313Z,15.90
2022-07-30T03:48:02.590Z,16.53
2022-07-30T03:54:13.378Z,16.85
2022-07-30T04:00:16.009Z,15.80
2022-07-30T04:06:24.949Z,15.97
2022-07-30T04:12:28.021Z,18.25
2022-07-30T04:18:31.422Z,18.70
2022-07-30T04:24:33.237Z,19.52
2022-07-30T04:30:35.781Z,20.70
2022-07-30T04:36:38.909Z,21.47
2022-07-30T04:42:40.434Z,21.83
2022-07-30T04:48:48.111Z,21.00
2022-07-30T04:54:59.494Z,21.00
2022-07-30T05:01:02.290Z,19.80
2022-07-30T05:07:06.909Z,19.40
2022-07-30T05:13:14.829Z,17.13
2022-07-30T05:19:17.186Z,15.67
2022-07-30T05:25:18.833Z,15.98
2022-07-30T05:31:20.596Z,16.40
2022-07-30T05:37:29.742Z,16.53
2022-07-30T05:43:31.397Z,15.80
2022-07-30T05:49:33.114Z,17.73
2022-07-30T05:55:43.891Z,18.15
2022-07-30T06:02:06.708Z,16.65
2022-07-30T06:08:21.283Z,16.17
2022-07-30T06:14:25.378Z,14.93
2022-07-30T06:20:27.101Z,16.70
2022-07-30T06:26:42.904Z,15.70
2022-07-30T06:32:45.650Z,16.50
2022-07-30T06:38:51.106Z,16.43
2022-07-30T06:44:59.076Z,16.80
2022-07-30T06:51:00.656Z,16.97
2022-07-30T06:57:03.844Z,16.85
2022-07-30T07:03:08.714Z,16.67
2022-07-30T07:09:13.289Z,15.40
2022-07-30T07:15:37.037Z,13.23
2022-07-30T07:21:42.222Z,13.10
2022-07-30T07:27:44.217Z,14.07
2022-07-30T07:34:05.919Z,11.55
2022-07-30T07:40:08.449Z,11.40
2022-07-30T07:46:17.197Z,12.02
2022-07-30T07:52:36.392Z,12.60
2022-07-30T07:58:40.537Z,12.07
2022-07-30T08:04:43.827Z,11.48
2022-07-30T08:10:45.262Z,12.40
2022-07-30T08:17:05.792Z,11.77
2022-07-30T08:23:28.089Z,12.87
2022-07-30T08:29:30.095Z,11.85
2022-07-30T08:35:31.701Z,13.50
2022-07-30T08:41:33.231Z,14.37
2022-07-30T08:47:34.802Z,14.85
2022-07-30T08:53:56.248Z,13.57
2022-07-30T09:00:01.177Z,14.63
2022-07-30T09:06:04.444Z,14.25
2022-07-30T09:12:25.893Z,15.27
2022-07-30T09:18:29.328Z,15.05
2022-07-30T09:24:41.118Z,17.10
2022-07-30T09:31:01.000Z,17.15
2022-07-30T09:37:21.132Z,18.45
2022-07-30T09:43:57.812Z,17.83
2022-07-30T09:50:17.913Z,19.65
2022-07-30T09:56:31.533Z,17.30
2022-07-30T10:02:34.735Z,20.17
2022-07-30T10:08:56.754Z,17.92
2022-07-30T10:14:59.857Z,17.73
2022-07-30T10:21:05.601Z,18.10
2022-07-30T10:27:26.161Z,17.70
2022-07-30T10:33:55.001Z,17.48
2022-07-30T10:40:01.772Z,17.30
2022-07-30T10:46:21.916Z,17.73
2022-07-30T10:52:43.759Z,16.23
2022-07-30T10:59:03.942Z,16.63
2022-07-30T11:05:17.296Z,17.17
2022-07-30T11:12:00.081Z,17.08
2022-07-30T11:18:04.399Z,17.57
2022-07-30T11:24:06.082Z,19.13
2022-07-30T11:30:18.068Z,18.57
2022-07-30T11:36:19.828Z,17.92
2022-07-30T11:42:25.534Z,16.85
2022-07-30T11:48:27.926Z,16.40
2022-07-30T11:54:29.385Z,17.15
2022-07-30T12:00:47.910Z,17.50
2022-07-30T12:06:49.553Z,16.65
2022-07-30T12:12:51.309Z,16.48
2022-07-30T12:18:53.124Z,16.50
2022-07-30T12:24:55.419Z,15.40
2022-07-30T12:30:57.796Z,15.70
2022-07-30T12:37:09.944Z,15.27
2022-07-30T12:43:13.439Z,14.80
2022-07-30T12:49:21.476Z,14.87
2022-07-30T12:55:31.476Z,14.57
2022-07-30T13:01:42.679Z,14.30
2022-07-30T13:07:57.369Z,14.57
2022-07-30T13:14:00.104Z,14.77
2022-07-30T13:20:02.016Z,13.33
2022-07-30T13:26:03.687Z,14.32
2022-07-30T13:32:05.262Z,13.73
2022-07-30T13:38:06.951Z,13.77
2022-07-30T13:44:09.364Z,14.25
2022-07-30T13:50:10.813Z,13.50
2022-07-30T13:56:13.189Z,13.55
2022-07-30T14:02:14.769Z,12.20
2022-07-30T14:08:16.698Z,12.80
2022-07-30T14:14:18.271Z,12.85
2022-07-30T14:20:19.845Z,11.60
2022-07-30T14:26:21.295Z,12.20
2022-07-30T14:32:23.527Z,11.77
2022-07-30T14:38:26.045Z,11.65
2022-07-30T14:44:27.707Z,12.98
2022-07-30T14:50:29.235Z,13.33
2022-07-30T14:56:30.687Z,14.20
2022-07-30T15:02:32.180Z,14.47
2022-07-30T15:08:33.613Z,13.77
2022-07-30T15:14:36.089Z,13.40
2022-07-30T15:20:38.150Z,13.20
2022-07-30T15:26:39.654Z,11.95
2022-07-30T15:32:41.241Z,12.67
2022-07-30T15:38:43.404Z,12.43
2022-07-30T15:44:48.879Z,11.60
2022-07-30T15:50:50.802Z,11.03
2022-07-30T15:56:53.944Z,10.43
2022-07-30T16:02:56.199Z,9.43
2022-07-30T16:09:00.199Z,9.45
2022-07-30T16:15:01.700Z,8.43
2022-07-30T16:21:03.286Z,9.10
2022-07-30T16:27:04.718Z,8.57
2022-07-30T16:33:06.157Z,8.00
2022-07-30T16:39:07.929Z,8.30
2022-07-30T16:45:10.151Z,8.75
2022-07-30T16:51:11.605Z,8.33
2022-07-30T16:57:14.476Z,7.82
2022-07-30T17:03:19.920Z,7.23
2022-07-30T17:09:22.391Z,7.93
2022-07-30T17:15:32.979Z,7.80
2022-07-30T17:21:34.721Z,7.63
2022-07-30T17:27:36.550Z,7.25
2022-07-30T17:33:37.969Z,7.97
2022-07-30T17:40:23.000Z,7.25
2022-07-30T17:46:01.711Z,7.20
2022-07-30T17:52:03.674Z,7.23
2022-07-30T17:58:05.508Z,7.53
2022-07-30T18:04:07.046Z,8.23
2022-07-30T18:10:08.881Z,7.45
2022-07-30T18:16:11.405Z,7.72
2022-07-30T18:22:14.606Z,7.73
2022-07-30T18:28:16.596Z,7.32
2022-07-30T18:34:18.088Z,7.60
2022-07-30T18:40:23.771Z,7.25
2022-07-30T18:46:25.771Z,7.20
2022-07-30T18:52:27.258Z,7.30
2022-07-30T18:58:28.760Z,7.95
2022-07-30T19:04:31.418Z,8.53
2022-07-30T19:10:32.898Z,9.35
2022-07-30T19:16:34.655Z,8.88
2022-07-30T19:22:36.573Z,9.10
2022-07-30T19:28:39.194Z,8.52
2022-07-30T19:34:40.977Z,10.53
2022-07-30T19:40:42.438Z,10.30
2022-07-30T19:46:44.988Z,9.65
2022-07-30T19:52:51.483Z,9.87
2022-07-30T19:58:53.275Z,10.30
2022-07-30T20:04:54.814Z,11.00
2022-07-30T20:11:01.371Z,10.25
2022-07-30T20:17:03.574Z,10.43
2022-07-30T20:23:05.107Z,11.50
2022-07-30T20:29:09.263Z,11.85
2022-07-30T20:35:21.554Z,11.50
2022-07-30T20:41:23.040Z,12.10
2022-07-30T20:47:37.392Z,12.65
2022-07-30T20:53:41.838Z,11.67
2022-07-30T20:59:46.883Z,12.57
2022-07-30T21:05:48.880Z,12.53
2022-07-30T21:11:53.930Z,12.75
2022-07-30T21:17:55.429Z,12.70
2022-07-30T21:23:56.970Z,12.23
2022-07-30T21:29:58.530Z,12.93
2022-07-30T21:36:01.594Z,12.97
2022-07-30T21:42:03.656Z,12.93
2022-07-30T21:48:10.781Z,13.32
2022-07-30T21:54:13.908Z,13.27
2022-07-30T22:00:21.978Z,13.68
2022-07-30T22:06:24.300Z,14.03
2022-07-30T22:12:28.907Z,14.63
2022-07-30T22:18:30.732Z,14.40
2022-07-30T22:24:32.373Z,14.90
2022-07-30T22:30:33.931Z,14.57
2022-07-30T22:36:35.403Z,15.10
2022-07-30T22:42:49.675Z,14.85
2022-07-30T22:48:52.870Z,15.82
2022-07-30T22:54:54.701Z,17.17
2022-07-30T23:00:56.571Z,17.50
2022-07-30T23:06:58.041Z,17.93
2022-07-30T23:13:00.972Z,17.20
2022-07-30T23:32:17.909Z,15.73
2022-07-30T23:38:19.428Z,14.67
2022-07-30T23:44:20.859Z,14.35
2022-07-30T23:50:22.317Z,14.15
2022-07-30T23:56:23.766Z,13.60
